sensor_id;sensor_type;location;lat;lon;timestamp;temperature;humidity
21267;DHT22;10791;53.108;18.326;2023-05-07T00:04:19;5.10;99.90
21267;DHT22;10791;53.108;18.326;2023-05-07T00:09:23;4.90;99.90
21267;DHT22;10791;53.108;18.326;2023-05-07T00:14:26;4.90;99.90
21267;DHT22;10791;53.108;18.326;2023-05-07T00:19:29;4.80;99.90
21267;DHT22;10791;53.108;18.326;2023-05-07T00:24:32;4.70;99.90
21267;DHT22;10791;53.108;18.326;2023-05-07T00:29:36;4.60;99.90
21267;DHT22;10791;53.108;18.326;2023-05-07T00:34:39;4.50;99.90
21267;DHT22;10791;53.108;18.326;2023-05-07T00:39:43;4.50;99.90
21267;DHT22;10791;53.108;18.326;2023-05-07T00:44:47;4.50;99.90
21267;DHT22;10791;53.108;18.326;2023-05-07T00:49:50;4.40;99.90
21267;DHT22;10791;53.108;18.326;2023-05-07T00:54:54;4.30;99.90
21267;DHT22;10791;53.108;18.326;2023-05-07T00:59:58;4.20;99.90
21267;DHT22;10791;53.108;18.326;2023-05-07T01:05:03;4.20;99.90
21267;DHT22;10791;53.108;18.326;2023-05-07T01:10:09;4.10;99.90
21267;DHT22;10791;53.108;18.326;2023-05-07T01:15:14;4.00;99.90
21267;DHT22;10791;53.108;18.326;2023-05-07T01:20:19;3.90;99.90
21267;DHT22;10791;53.108;18.326;2023-05-07T01:25:22;3.90;99.90
21267;DHT22;10791;53.108;18.326;2023-05-07T01:30:26;3.80;99.90
21267;DHT22;10791;53.108;18.326;2023-05-07T01:35:41;3.70;99.90
21267;DHT22;10791;53.108;18.326;2023-05-07T01:40:46;3.50;99.90
21267;DHT22;10791;53.108;18.326;2023-05-07T01:45:49;3.40;99.90
21267;DHT22;10791;53.108;18.326;2023-05-07T01:50:53;3.40;99.90
21267;DHT22;10791;53.108;18.326;2023-05-07T01:55:56;3.30;99.90
21267;DHT22;10791;53.108;18.326;2023-05-07T02:01:00;3.20;99.90
21267;DHT22;10791;53.108;18.326;2023-05-07T02:06:03;3.10;99.90
21267;DHT22;10791;53.108;18.326;2023-05-07T02:11:06;3.10;99.90
21267;DHT22;10791;53.108;18.326;2023-05-07T02:16:10;3.00;99.90
21267;DHT22;10791;53.108;18.326;2023-05-07T02:21:13;3.00;99.90
21267;DHT22;10791;53.108;18.326;2023-05-07T02:26:18;3.00;99.90
21267;DHT22;10791;53.108;18.326;2023-05-07T02:31:21;2.90;99.90
21267;DHT22;10791;53.108;18.326;2023-05-07T02:36:25;2.90;99.90
21267;DHT22;10791;53.108;18.326;2023-05-07T02:41:29;2.80;99.90
21267;DHT22;10791;53.108;18.326;2023-05-07T02:46:33;2.80;99.90
21267;DHT22;10791;53.108;18.326;2023-05-07T02:51:36;2.80;99.90
21267;DHT22;10791;53.108;18.326;2023-05-07T02:56:40;2.70;99.90
21267;DHT22;10791;53.108;18.326;2023-05-07T03:01:43;2.60;99.90
21267;DHT22;10791;53.108;18.326;2023-05-07T03:06:48;2.60;99.90
21267;DHT22;10791;53.108;18.326;2023-05-07T03:11:51;2.60;99.90
21267;DHT22;10791;53.108;18.326;2023-05-07T03:16:54;2.50;99.90
21267;DHT22;10791;53.108;18.326;2023-05-07T03:21:58;2.50;99.90
21267;DHT22;10791;53.108;18.326;2023-05-07T03:27:01;2.40;99.90
21267;DHT22;10791;53.108;18.326;2023-05-07T03:32:04;2.40;99.90
21267;DHT22;10791;53.108;18.326;2023-05-07T03:37:08;2.50;99.90
21267;DHT22;10791;53.108;18.326;2023-05-07T03:42:11;2.40;99.90
21267;DHT22;10791;53.108;18.326;2023-05-07T03:47:15;2.50;99.90
21267;DHT22;10791;53.108;18.326;2023-05-07T03:52:18;2.60;99.90
21267;DHT22;10791;53.108;18.326;2023-05-07T03:57:26;2.70;99.90
21267;DHT22;10791;53.108;18.326;2023-05-07T04:02:29;2.80;99.90
21267;DHT22;10791;53.108;18.326;2023-05-07T04:07:33;2.80;99.90
21267;DHT22;10791;53.108;18.326;2023-05-07T04:12:36;2.90;99.90
21267;DHT22;10791;53.108;18.326;2023-05-07T04:17:40;3.00;99.90
21267;DHT22;10791;53.108;18.326;2023-05-07T04:22:44;3.10;99.90
21267;DHT22;10791;53.108;18.326;2023-05-07T04:27:47;3.30;99.90
21267;DHT22;10791;53.108;18.326;2023-05-07T04:32:52;3.40;99.90
21267;DHT22;10791;53.108;18.326;2023-05-07T04:37:55;3.60;99.90
21267;DHT22;10791;53.108;18.326;2023-05-07T04:42:59;3.70;99.90
21267;DHT22;10791;53.108;18.326;2023-05-07T04:48:02;3.90;99.90
21267;DHT22;10791;53.108;18.326;2023-05-07T04:53:05;4.20;99.90
21267;DHT22;10791;53.108;18.326;2023-05-07T04:58:09;4.40;99.90
21267;DHT22;10791;53.108;18.326;2023-05-07T05:03:12;4.60;99.90
21267;DHT22;10791;53.108;18.326;2023-05-07T05:08:16;4.90;99.90
21267;DHT22;10791;53.108;18.326;2023-05-07T05:13:19;5.10;99.90
21267;DHT22;10791;53.108;18.326;2023-05-07T05:18:24;5.40;99.90
21267;DHT22;10791;53.108;18.326;2023-05-07T05:23:27;5.50;99.90
21267;DHT22;10791;53.108;18.326;2023-05-07T05:28:30;5.60;99.90
21267;DHT22;10791;53.108;18.326;2023-05-07T05:33:33;6.00;99.90
21267;DHT22;10791;53.108;18.326;2023-05-07T05:38:38;6.20;99.90
21267;DHT22;10791;53.108;18.326;2023-05-07T05:43:41;6.40;99.90
21267;DHT22;10791;53.108;18.326;2023-05-07T05:48:44;6.60;99.90
21267;DHT22;10791;53.108;18.326;2023-05-07T05:53:47;6.90;99.90
21267;DHT22;10791;53.108;18.326;2023-05-07T05:58:51;7.20;99.90
21267;DHT22;10791;53.108;18.326;2023-05-07T06:03:55;7.40;99.90
21267;DHT22;10791;53.108;18.326;2023-05-07T06:08:58;7.60;99.90
21267;DHT22;10791;53.108;18.326;2023-05-07T06:14:01;7.90;99.90
21267;DHT22;10791;53.108;18.326;2023-05-07T06:19:05;8.00;99.90
21267;DHT22;10791;53.108;18.326;2023-05-07T06:24:08;8.30;99.90
21267;DHT22;10791;53.108;18.326;2023-05-07T06:29:11;8.50;99.90
21267;DHT22;10791;53.108;18.326;2023-05-07T06:34:15;8.80;99.90
21267;DHT22;10791;53.108;18.326;2023-05-07T06:39:18;8.90;99.90
21267;DHT22;10791;53.108;18.326;2023-05-07T06:44:22;9.10;99.90
21267;DHT22;10791;53.108;18.326;2023-05-07T06:49:25;9.50;99.90
21267;DHT22;10791;53.108;18.326;2023-05-07T06:54:29;9.60;99.90
21267;DHT22;10791;53.108;18.326;2023-05-07T06:59:32;9.80;99.90
21267;DHT22;10791;53.108;18.326;2023-05-07T07:04:36;10.00;99.90
21267;DHT22;10791;53.108;18.326;2023-05-07T07:09:41;10.20;99.90
21267;DHT22;10791;53.108;18.326;2023-05-07T07:14:44;10.40;99.90
21267;DHT22;10791;53.108;18.326;2023-05-07T07:19:48;10.60;99.90
21267;DHT22;10791;53.108;18.326;2023-05-07T07:24:51;10.80;99.90
21267;DHT22;10791;53.108;18.326;2023-05-07T07:29:55;10.90;99.90
21267;DHT22;10791;53.108;18.326;2023-05-07T07:34:58;11.10;99.90
21267;DHT22;10791;53.108;18.326;2023-05-07T07:40:01;11.20;99.90
21267;DHT22;10791;53.108;18.326;2023-05-07T07:45:05;11.30;99.90
21267;DHT22;10791;53.108;18.326;2023-05-07T07:50:09;11.50;99.90
21267;DHT22;10791;53.108;18.326;2023-05-07T07:55:14;11.60;99.90
21267;DHT22;10791;53.108;18.326;2023-05-07T08:00:24;11.70;99.90
21267;DHT22;10791;53.108;18.326;2023-05-07T08:05:27;11.80;99.90
21267;DHT22;10791;53.108;18.326;2023-05-07T08:10:31;12.00;99.90
21267;DHT22;10791;53.108;18.326;2023-05-07T08:15:37;12.20;99.90
21267;DHT22;10791;53.108;18.326;2023-05-07T08:20:41;12.40;97.30
21267;DHT22;10791;53.108;18.326;2023-05-07T08:25:45;12.40;98.80
21267;DHT22;10791;53.108;18.326;2023-05-07T08:30:48;12.40;97.10
21267;DHT22;10791;53.108;18.326;2023-05-07T08:35:52;12.40;99.00
21267;DHT22;10791;53.108;18.326;2023-05-07T08:40:55;12.60;98.00
21267;DHT22;10791;53.108;18.326;2023-05-07T08:46:00;12.70;97.20
21267;DHT22;10791;53.108;18.326;2023-05-07T08:51:05;12.70;98.00
21267;DHT22;10791;53.108;18.326;2023-05-07T08:56:09;12.90;96.60
21267;DHT22;10791;53.108;18.326;2023-05-07T09:01:14;12.90;97.40
21267;DHT22;10791;53.108;18.326;2023-05-07T09:06:18;12.80;95.30
21267;DHT22;10791;53.108;18.326;2023-05-07T09:11:24;12.80;92.70
21267;DHT22;10791;53.108;18.326;2023-05-07T09:16:29;13.00;96.90
21267;DHT22;10791;53.108;18.326;2023-05-07T09:21:33;13.10;95.60
21267;DHT22;10791;53.108;18.326;2023-05-07T09:26:37;13.40;94.00
21267;DHT22;10791;53.108;18.326;2023-05-07T09:31:40;13.40;94.60
21267;DHT22;10791;53.108;18.326;2023-05-07T09:36:43;13.50;92.50
21267;DHT22;10791;53.108;18.326;2023-05-07T09:41:47;13.60;93.20
21267;DHT22;10791;53.108;18.326;2023-05-07T09:46:54;13.70;92.70
21267;DHT22;10791;53.108;18.326;2023-05-07T09:52:00;13.70;95.10
21267;DHT22;10791;53.108;18.326;2023-05-07T09:57:05;13.60;92.40
21267;DHT22;10791;53.108;18.326;2023-05-07T10:02:10;13.80;91.80
21267;DHT22;10791;53.108;18.326;2023-05-07T10:07:16;13.60;90.70
21267;DHT22;10791;53.108;18.326;2023-05-07T10:12:20;13.70;95.40
21267;DHT22;10791;53.108;18.326;2023-05-07T10:17:23;14.10;92.90
21267;DHT22;10791;53.108;18.326;2023-05-07T10:22:27;14.20;94.30
21267;DHT22;10791;53.108;18.326;2023-05-07T10:27:31;14.40;87.20
21267;DHT22;10791;53.108;18.326;2023-05-07T10:32:45;14.50;87.60
21267;DHT22;10791;53.108;18.326;2023-05-07T10:37:50;14.00;89.10
21267;DHT22;10791;53.108;18.326;2023-05-07T10:43:01;14.30;95.20
21267;DHT22;10791;53.108;18.326;2023-05-07T10:53:30;14.80;89.30
21267;DHT22;10791;53.108;18.326;2023-05-07T10:58:34;14.40;90.40
21267;DHT22;10791;53.108;18.326;2023-05-07T11:04:12;14.40;88.30
21267;DHT22;10791;53.108;18.326;2023-05-07T11:09:16;14.20;85.80
21267;DHT22;10791;53.108;18.326;2023-05-07T11:19:55;14.20;84.30
21267;DHT22;10791;53.108;18.326;2023-05-07T11:25:03;14.40;82.40
21267;DHT22;10791;53.108;18.326;2023-05-07T11:30:07;14.80;82.90
21267;DHT22;10791;53.108;18.326;2023-05-07T11:35:10;15.00;80.90
21267;DHT22;10791;53.108;18.326;2023-05-07T11:40:14;15.20;84.90
21267;DHT22;10791;53.108;18.326;2023-05-07T11:45:24;15.60;84.00
21267;DHT22;10791;53.108;18.326;2023-05-07T11:50:30;15.60;78.50
21267;DHT22;10791;53.108;18.326;2023-05-07T11:55:34;15.70;74.30
21267;DHT22;10791;53.108;18.326;2023-05-07T12:00:37;16.10;76.70
21267;DHT22;10791;53.108;18.326;2023-05-07T12:05:40;16.00;72.90
21267;DHT22;10791;53.108;18.326;2023-05-07T12:10:50;16.20;73.10
21267;DHT22;10791;53.108;18.326;2023-05-07T12:16:12;16.10;72.30
21267;DHT22;10791;53.108;18.326;2023-05-07T12:21:16;16.00;70.80
21267;DHT22;10791;53.108;18.326;2023-05-07T12:27:16;15.90;70.70
21267;DHT22;10791;53.108;18.326;2023-05-07T12:32:21;16.00;68.80
21267;DHT22;10791;53.108;18.326;2023-05-07T12:37:25;16.00;70.00
21267;DHT22;10791;53.108;18.326;2023-05-07T12:42:37;15.70;68.20
21267;DHT22;10791;53.108;18.326;2023-05-07T12:47:44;15.80;69.90
21267;DHT22;10791;53.108;18.326;2023-05-07T12:52:48;16.20;71.00
21267;DHT22;10791;53.108;18.326;2023-05-07T12:57:53;16.40;69.40
21267;DHT22;10791;53.108;18.326;2023-05-07T13:02:58;16.50;70.60
21267;DHT22;10791;53.108;18.326;2023-05-07T13:08:02;16.60;72.10
21267;DHT22;10791;53.108;18.326;2023-05-07T13:13:05;16.40;66.50
21267;DHT22;10791;53.108;18.326;2023-05-07T13:18:08;15.90;68.40
21267;DHT22;10791;53.108;18.326;2023-05-07T13:23:14;15.30;69.40
21267;DHT22;10791;53.108;18.326;2023-05-07T13:28:17;15.20;70.90
21267;DHT22;10791;53.108;18.326;2023-05-07T13:33:20;15.20;68.70
21267;DHT22;10791;53.108;18.326;2023-05-07T13:38:23;15.70;64.00
21267;DHT22;10791;53.108;18.326;2023-05-07T13:43:27;16.00;65.00
21267;DHT22;10791;53.108;18.326;2023-05-07T13:48:30;16.40;64.90
21267;DHT22;10791;53.108;18.326;2023-05-07T13:53:33;16.50;65.20
21267;DHT22;10791;53.108;18.326;2023-05-07T13:58:36;16.70;61.50
21267;DHT22;10791;53.108;18.326;2023-05-07T14:03:49;17.00;61.40
21267;DHT22;10791;53.108;18.326;2023-05-07T14:08:53;17.00;60.00
21267;DHT22;10791;53.108;18.326;2023-05-07T14:13:57;17.00;62.30
21267;DHT22;10791;53.108;18.326;2023-05-07T14:19:01;17.20;59.60
21267;DHT22;10791;53.108;18.326;2023-05-07T14:24:06;17.40;59.20
21267;DHT22;10791;53.108;18.326;2023-05-07T14:29:10;17.40;59.10
21267;DHT22;10791;53.108;18.326;2023-05-07T14:34:13;17.70;58.20
21267;DHT22;10791;53.108;18.326;2023-05-07T14:39:16;17.90;57.90
21267;DHT22;10791;53.108;18.326;2023-05-07T14:44:20;18.60;58.80
21267;DHT22;10791;53.108;18.326;2023-05-07T14:49:23;19.50;55.10
21267;DHT22;10791;53.108;18.326;2023-05-07T14:54:26;21.00;50.50
21267;DHT22;10791;53.108;18.326;2023-05-07T14:59:29;21.10;51.70
21267;DHT22;10791;53.108;18.326;2023-05-07T15:04:33;21.20;50.20
21267;DHT22;10791;53.108;18.326;2023-05-07T15:09:36;21.30;49.00
21267;DHT22;10791;53.108;18.326;2023-05-07T15:14:39;21.50;49.20
21267;DHT22;10791;53.108;18.326;2023-05-07T15:19:42;23.20;46.30
21267;DHT22;10791;53.108;18.326;2023-05-07T15:24:45;24.10;44.50
21267;DHT22;10791;53.108;18.326;2023-05-07T15:29:48;23.10;43.70
21267;DHT22;10791;53.108;18.326;2023-05-07T15:34:51;22.30;46.70
21267;DHT22;10791;53.108;18.326;2023-05-07T15:39:55;21.10;46.30
21267;DHT22;10791;53.108;18.326;2023-05-07T15:44:58;21.10;46.70
21267;DHT22;10791;53.108;18.326;2023-05-07T15:50:03;20.50;49.20
21267;DHT22;10791;53.108;18.326;2023-05-07T15:55:07;20.10;48.50
21267;DHT22;10791;53.108;18.326;2023-05-07T16:00:12;19.70;51.20
21267;DHT22;10791;53.108;18.326;2023-05-07T16:05:16;19.70;51.10
21267;DHT22;10791;53.108;18.326;2023-05-07T16:10:19;19.90;49.20
21267;DHT22;10791;53.108;18.326;2023-05-07T16:15:22;19.90;48.90
21267;DHT22;10791;53.108;18.326;2023-05-07T16:20:29;19.70;48.20
21267;DHT22;10791;53.108;18.326;2023-05-07T16:25:32;20.20;50.10
21267;DHT22;10791;53.108;18.326;2023-05-07T16:30:36;20.40;48.20
21267;DHT22;10791;53.108;18.326;2023-05-07T16:35:40;20.90;47.30
21267;DHT22;10791;53.108;18.326;2023-05-07T16:40:44;21.10;46.90
21267;DHT22;10791;53.108;18.326;2023-05-07T16:45:48;20.10;47.70
21267;DHT22;10791;53.108;18.326;2023-05-07T16:50:51;20.10;49.00
21267;DHT22;10791;53.108;18.326;2023-05-07T16:55:54;20.30;48.30
21267;DHT22;10791;53.108;18.326;2023-05-07T17:00:58;21.60;46.70
21267;DHT22;10791;53.108;18.326;2023-05-07T17:06:02;22.50;44.70
21267;DHT22;10791;53.108;18.326;2023-05-07T17:11:05;23.60;44.10
21267;DHT22;10791;53.108;18.326;2023-05-07T17:16:09;23.90;41.80
21267;DHT22;10791;53.108;18.326;2023-05-07T17:21:12;23.40;43.30
21267;DHT22;10791;53.108;18.326;2023-05-07T17:26:16;23.00;43.80
21267;DHT22;10791;53.108;18.326;2023-05-07T17:31:19;22.50;44.90
21267;DHT22;10791;53.108;18.326;2023-05-07T17:36:22;22.10;45.50
21267;DHT22;10791;53.108;18.326;2023-05-07T17:41:26;20.70;47.30
21267;DHT22;10791;53.108;18.326;2023-05-07T17:46:29;19.20;49.60
21267;DHT22;10791;53.108;18.326;2023-05-07T17:51:32;18.40;54.00
21267;DHT22;10791;53.108;18.326;2023-05-07T17:56:54;17.70;55.60
21267;DHT22;10791;53.108;18.326;2023-05-07T18:01:58;17.20;56.70
21267;DHT22;10791;53.108;18.326;2023-05-07T18:07:01;16.80;59.50
21267;DHT22;10791;53.108;18.326;2023-05-07T18:12:05;16.30;60.40
21267;DHT22;10791;53.108;18.326;2023-05-07T18:17:09;15.80;61.40
21267;DHT22;10791;53.108;18.326;2023-05-07T18:22:12;15.40;63.80
21267;DHT22;10791;53.108;18.326;2023-05-07T18:27:15;15.10;66.50
21267;DHT22;10791;53.108;18.326;2023-05-07T18:32:19;14.60;68.40
21267;DHT22;10791;53.108;18.326;2023-05-07T18:37:24;14.10;69.50
21267;DHT22;10791;53.108;18.326;2023-05-07T18:42:28;13.60;76.00
21267;DHT22;10791;53.108;18.326;2023-05-07T18:47:38;13.20;81.20
21267;DHT22;10791;53.108;18.326;2023-05-07T18:52:41;12.80;84.50
21267;DHT22;10791;53.108;18.326;2023-05-07T18:57:45;12.40;86.30
21267;DHT22;10791;53.108;18.326;2023-05-07T19:02:50;12.10;88.30
21267;DHT22;10791;53.108;18.326;2023-05-07T19:07:54;11.80;92.10
21267;DHT22;10791;53.108;18.326;2023-05-07T19:13:01;11.40;96.60
21267;DHT22;10791;53.108;18.326;2023-05-07T19:18:10;11.20;99.90
21267;DHT22;10791;53.108;18.326;2023-05-07T19:23:15;10.90;99.90
21267;DHT22;10791;53.108;18.326;2023-05-07T19:28:20;10.60;99.90
21267;DHT22;10791;53.108;18.326;2023-05-07T19:33:24;10.40;99.90
21267;DHT22;10791;53.108;18.326;2023-05-07T19:38:27;10.20;99.90
21267;DHT22;10791;53.108;18.326;2023-05-07T19:43:31;10.00;99.90
21267;DHT22;10791;53.108;18.326;2023-05-07T19:48:40;9.80;99.90
21267;DHT22;10791;53.108;18.326;2023-05-07T19:53:43;9.60;99.90
21267;DHT22;10791;53.108;18.326;2023-05-07T19:58:47;9.40;99.90
21267;DHT22;10791;53.108;18.326;2023-05-07T20:03:52;9.20;99.90
21267;DHT22;10791;53.108;18.326;2023-05-07T20:08:56;9.10;99.90
21267;DHT22;10791;53.108;18.326;2023-05-07T20:14:00;8.80;99.90
21267;DHT22;10791;53.108;18.326;2023-05-07T20:19:03;8.50;99.90
21267;DHT22;10791;53.108;18.326;2023-05-07T20:24:06;8.30;99.90
21267;DHT22;10791;53.108;18.326;2023-05-07T20:29:10;8.20;99.90
21267;DHT22;10791;53.108;18.326;2023-05-07T20:34:13;8.00;99.90
21267;DHT22;10791;53.108;18.326;2023-05-07T20:39:16;7.90;99.90
21267;DHT22;10791;53.108;18.326;2023-05-07T20:44:20;7.80;99.90
21267;DHT22;10791;53.108;18.326;2023-05-07T20:49:23;7.80;99.90
21267;DHT22;10791;53.108;18.326;2023-05-07T20:54:26;7.70;99.90
21267;DHT22;10791;53.108;18.326;2023-05-07T20:59:32;7.60;99.90
21267;DHT22;10791;53.108;18.326;2023-05-07T21:04:38;7.50;99.90
21267;DHT22;10791;53.108;18.326;2023-05-07T21:09:42;7.40;99.90
21267;DHT22;10791;53.108;18.326;2023-05-07T21:14:45;7.30;99.90
21267;DHT22;10791;53.108;18.326;2023-05-07T21:19:48;7.20;99.90
21267;DHT22;10791;53.108;18.326;2023-05-07T21:24:52;7.10;99.90
21267;DHT22;10791;53.108;18.326;2023-05-07T21:29:55;7.00;99.90
21267;DHT22;10791;53.108;18.326;2023-05-07T21:35:05;6.90;99.90
21267;DHT22;10791;53.108;18.326;2023-05-07T21:40:09;6.80;99.90
21267;DHT22;10791;53.108;18.326;2023-05-07T21:45:12;6.70;99.90
21267;DHT22;10791;53.108;18.326;2023-05-07T21:50:15;6.60;99.90
21267;DHT22;10791;53.108;18.326;2023-05-07T21:55:19;6.40;99.90
21267;DHT22;10791;53.108;18.326;2023-05-07T22:00:22;6.30;99.90
21267;DHT22;10791;53.108;18.326;2023-05-07T22:05:25;6.20;99.90
21267;DHT22;10791;53.108;18.326;2023-05-07T22:10:28;6.10;99.90
21267;DHT22;10791;53.108;18.326;2023-05-07T22:15:31;6.00;99.90
21267;DHT22;10791;53.108;18.326;2023-05-07T22:20:38;6.00;99.90
21267;DHT22;10791;53.108;18.326;2023-05-07T22:25:41;5.90;99.90
21267;DHT22;10791;53.108;18.326;2023-05-07T22:30:44;5.80;99.90
21267;DHT22;10791;53.108;18.326;2023-05-07T22:35:47;5.70;99.90
21267;DHT22;10791;53.108;18.326;2023-05-07T22:40:50;5.60;99.90
21267;DHT22;10791;53.108;18.326;2023-05-07T22:45:58;5.50;99.90
21267;DHT22;10791;53.108;18.326;2023-05-07T22:51:02;5.40;99.90
21267;DHT22;10791;53.108;18.326;2023-05-07T22:56:06;5.30;99.90
21267;DHT22;10791;53.108;18.326;2023-05-07T23:01:11;5.20;99.90
21267;DHT22;10791;53.108;18.326;2023-05-07T23:06:15;5.10;99.90
21267;DHT22;10791;53.108;18.326;2023-05-07T23:11:19;5.10;99.90
21267;DHT22;10791;53.108;18.326;2023-05-07T23:16:22;5.00;99.90
21267;DHT22;10791;53.108;18.326;2023-05-07T23:21:26;4.90;99.90
21267;DHT22;10791;53.108;18.326;2023-05-07T23:26:29;4.80;99.90
21267;DHT22;10791;53.108;18.326;2023-05-07T23:31:32;4.70;99.90
21267;DHT22;10791;53.108;18.326;2023-05-07T23:36:35;4.60;99.90
21267;DHT22;10791;53.108;18.326;2023-05-07T23:41:38;4.50;99.90
21267;DHT22;10791;53.108;18.326;2023-05-07T23:46:42;4.40;99.90
21267;DHT22;10791;53.108;18.326;2023-05-07T23:51:46;4.30;99.90
21267;DHT22;10791;53.108;18.326;2023-05-07T23:56:49;4.20;99.90
